Wertzville, Pennsylvania
Current Conditions -  °F | °C
As of 9:56 PM on Sunday 23 Nov 2014 (Local Time) from KCXY Reporting Station
Overcast Overcast  
Wind Chill: 43°   Ceiling: 4100
Heat Index: 48°   Visibility: 10mi
Dew Point: 34°   Wind: 13mph
Humidity: 58%   Direction: 120°ESE
Pressure: 29.93"   Gusts: NA
Location:  40.2485°N, 77.0142°W
Report Text: KCXY 240256Z AUTO 12011KT 10SM OVC041 09/01 A2993 RMK AO2 SLP139 T00890011 58033
Loading
Personal Weather Stations






























Interactive Weather Map New forecast layout! Learn more

10-Day Weather Forecast

Advertisements
Track Severe Weather on mobile